»·PEaware :: LLR808 KLAX-KLAS

LLR808 :: KLAX-KLAS

FLIGHT INFORMATION

Flight Status: Arrived
Operator: Unknown
More flights by this operator :: More flights under this callsign
Pilot: Daniel Corbe (12704)
Aircraft: BOEING 737-200
(B732)
More flights by this aircraft type
Origin: KLAX Los Angeles Intl
United States
Destination: KLAS McCarran Intl
United States
More flights between these airports :: More routes between these airports
Route: +LOOP8 DAG KPEC3
File this flight plan on PilotEdge
Remarks: SLANT WHISKEY shared cockpit w LLR809
Altitude:
(Current/Filed)
180ft
Speed:
(Current/Filed)
280kts
Departed: 16-Oct-16 10:26 AM
Arrived: 16-Oct-16 11:26 AM
Distance/Time
Traveled:
205nm/1:00
Distance/Time
To Go:
Arrived

Flight Plot

Page will automatically refresh every two minutes.


Map Options




Map Legend


Flown Route
Filed Route
Departure Airport
Arrival Airport
Navaid (VOR, NDB)
Fix

Horizontal Profiles

Position Reports

Time Latitude Longitude Heading Altitude Ground
Speed
16-Oct-16 09:56 33.942208 -118.399142 262 134ft 0kts
16-Oct-16 09:57 33.942208 -118.399142 262 134ft 0kts
16-Oct-16 09:58 33.942208 -118.399142 262 134ft 0kts
16-Oct-16 09:59 33.942208 -118.399142 262 134ft 0kts
16-Oct-16 10:00 33.942208 -118.399142 262 134ft 0kts
16-Oct-16 10:01 33.942238 -118.398873 262 134ft 1kts
16-Oct-16 10:02 33.942503 -118.398524 173 134ft 1kts
16-Oct-16 10:03 33.942504 -118.398524 173 134ft 0kts
16-Oct-16 10:04 33.940637 -118.398244 183 134ft 0kts
16-Oct-16 10:05 33.940637 -118.398244 183 134ft 0kts
16-Oct-16 10:06 33.940637 -118.398244 183 134ft 0kts
16-Oct-16 10:07 33.940637 -118.398244 183 134ft 0kts
16-Oct-16 10:08 33.940637 -118.398244 183 134ft 0kts
16-Oct-16 10:09 33.940637 -118.398244 183 134ft 0kts
16-Oct-16 10:10 33.940637 -118.398244 183 134ft 0kts
16-Oct-16 10:11 33.939208 -118.395789 82 134ft 23kts
16-Oct-16 10:12 33.940065 -118.387477 83 134ft 37kts
16-Oct-16 10:13 33.940435 -118.383855 85 134ft 0kts
16-Oct-16 10:14 33.940435 -118.383855 85 134ft 0kts
16-Oct-16 10:15 33.940435 -118.383855 85 134ft 0kts
16-Oct-16 10:16 33.940435 -118.383855 85 134ft 0kts
16-Oct-16 10:17 33.940435 -118.383855 85 134ft 0kts
16-Oct-16 10:18 33.940435 -118.383855 85 134ft 0kts
16-Oct-16 10:19 33.940435 -118.383855 85 134ft 0kts
16-Oct-16 10:20 33.940128 -118.383271 169 134ft 14kts
16-Oct-16 10:21 33.938276 -118.395639 263 141ft 140kts
16-Oct-16 10:22 33.938295 -118.445786 276 2168ft 190kts
16-Oct-16 10:23 33.945763 -118.488493 288 4507ft 185kts
16-Oct-16 10:24 33.967526 -118.544709 300 7221ft 196kts
16-Oct-16 10:25 33.988979 -118.581736 287 9001ft 202kts
16-Oct-16 10:26 33.973768 -118.627797 203 11191ft 219kts
16-Oct-16 10:27 33.937626 -118.588111 97 12813ft 280kts
16-Oct-16 10:28 33.934873 -118.518079 93 14375ft 289kts
16-Oct-16 10:29 33.933138 -118.447812 93 15023ft 333kts
16-Oct-16 10:30 33.933072 -118.372038 90 16606ft 332kts
16-Oct-16 10:31 33.933645 -118.306696 90 18921ft 297kts
16-Oct-16 10:32 33.934253 -118.236836 90 19033ft 327kts
16-Oct-16 10:33 33.934788 -118.164296 90 19046ft 346kts
16-Oct-16 10:34 33.950937 -118.095469 43 19005ft 353kts
16-Oct-16 10:35 34.001141 -118.057014 20 19080ft 353kts
16-Oct-16 10:36 34.062898 -118.016699 29 19045ft 377kts
16-Oct-16 10:37 34.105443 -117.950887 52 19048ft 401kts
16-Oct-16 10:38 34.150992 -117.886790 41 19038ft 409kts
16-Oct-16 10:39 34.210803 -117.835621 19 19062ft 408kts
16-Oct-16 10:40 34.280217 -117.795895 25 19007ft 426kts
16-Oct-16 10:41 34.340881 -117.734282 41 19051ft 441kts
16-Oct-16 10:42 34.394314 -117.659603 47 19111ft 449kts
16-Oct-16 10:43 34.446824 -117.576918 49 19106ft 455kts
16-Oct-16 10:44 34.501195 -117.487297 50 19108ft 460kts
16-Oct-16 10:45 34.554994 -117.397116 50 19110ft 464kts
16-Oct-16 10:46 34.607284 -117.308510 51 19096ft 466kts
16-Oct-16 10:47 34.664315 -117.211652 51 19095ft 468kts
16-Oct-16 10:48 34.728881 -117.101864 51 19089ft 469kts
16-Oct-16 10:49 34.798374 -116.983448 51 19044ft 470kts
16-Oct-16 10:50 34.870423 -116.860188 51 19018ft 470kts
16-Oct-16 10:51 34.933612 -116.751602 51 19090ft 468kts
16-Oct-16 10:52 35.005077 -116.628529 51 19082ft 471kts
16-Oct-16 10:53 35.087224 -116.507506 43 19032ft 473kts
16-Oct-16 10:54 35.164716 -116.404785 43 18997ft 477kts
16-Oct-16 10:55 35.238884 -116.281007 48 18935ft 480kts
16-Oct-16 10:56 35.327846 -116.163965 40 18925ft 476kts
16-Oct-16 10:57 35.420051 -116.054926 39 18948ft 473kts
16-Oct-16 10:58 35.513293 -115.946615 39 18946ft 472kts
16-Oct-16 10:59 35.605090 -115.839776 39 18731ft 462kts
16-Oct-16 11:00 35.693930 -115.732688 41 15514ft 442kts
16-Oct-16 11:01 35.772953 -115.632874 42 13328ft 407kts
16-Oct-16 11:02 35.844314 -115.539780 32 13294ft 380kts
16-Oct-16 11:03 35.930399 -115.513218 359 13282ft 341kts
16-Oct-16 11:04 36.012538 -115.489452 31 12655ft 358kts
16-Oct-16 11:05 36.055329 -115.393610 66 11707ft 358kts
16-Oct-16 11:06 36.059154 -115.297340 105 10595ft 341kts
16-Oct-16 11:07 36.035504 -115.203189 112 9381ft 330kts
16-Oct-16 11:08 36.012233 -115.110587 112 8436ft 313kts
16-Oct-16 11:09 36.007701 -115.013025 91 8174ft 275kts
16-Oct-16 11:10 36.011578 -114.930503 92 8138ft 218kts
16-Oct-16 11:11 36.016046 -114.858693 91 8228ft 243kts
16-Oct-16 11:12 36.024401 -114.768355 79 8020ft 308kts
16-Oct-16 11:13 36.082187 -114.718296 329 7480ft 292kts
16-Oct-16 11:14 36.093467 -114.794525 256 6185ft 243kts
16-Oct-16 11:15 36.081624 -114.875577 258 5563ft 244kts
16-Oct-16 11:16 36.073231 -114.952795 261 4579ft 212kts
16-Oct-16 11:17 36.075014 -115.013921 260 3644ft 171kts
16-Oct-16 11:18 36.073787 -115.068066 261 3075ft 149kts
16-Oct-16 11:19 36.073691 -115.110489 266 2459ft 125kts
16-Oct-16 11:20 36.073601 -115.142304 273 2150ft 45kts
16-Oct-16 11:21 36.074841 -115.146120 316 2150ft 7kts
16-Oct-16 11:22 36.076221 -115.146546 359 2150ft 18kts
16-Oct-16 11:23 36.079478 -115.146739 28 2150ft 0kts

Navigation Log

Ident Type
1. KLAX Airport
2. LAX Navaid
3. KEGGS Fix
4. COOPP Fix
5. DAG Navaid
6. KLAS Airport